Time;durP1;ratioP1;P1;durP2;ratioP2;P2;SDS_P1;SDS_P2;PMS_P1;PMS_P2;Temp;Humidity;BMP_temperature;BMP_pressure;BME280_temperature;BME280_humidity;BME280_pressure;Samples;Min_cycle;Max_cycle;Signal;HPM_P1;HPM_P2
2021/08/23 00:04:08;;;;;;;7.20;6.40;;;;;;;18.12;77.08;98607.86;233060;1201;22537;-72
2021/08/23 00:09:12;;;;;;;6.40;5.80;;;;;;;18.09;77.13;98615.59;233216;1203;22485;-70
2021/08/23 00:14:35;;;;;;;7.20;6.20;;;;;;;18.09;77.25;98628.28;233217;1194;24054;-72
2021/08/23 00:19:39;;;;;;;7.40;6.10;;;;;;;18.05;77.09;98632.80;233178;1201;24478;-72
2021/08/23 00:24:57;;;;;;;8.10;6.70;;;;;;;18.07;77.18;98635.90;233393;1201;25224;-70
2021/08/23 00:30:12;;;;;;;7.30;6.60;;;;;;;18.12;77.33;98631.56;233196;1201;24089;-72
2021/08/23 00:35:15;;;;;;;8.50;7.60;;;;;;;18.15;77.56;98623.29;233306;1201;22529;-70
2021/08/23 00:40:18;;;;;;;7.00;6.00;;;;;;;18.23;77.55;98613.05;233329;1201;25273;-72
2021/08/23 00:45:33;;;;;;;9.20;6.40;;;;;;;18.24;77.28;98606.05;233363;1209;22516;-72
2021/08/23 00:50:50;;;;;;;7.80;7.00;;;;;;;18.26;77.17;98593.48;233321;1195;24857;-71
2021/08/23 00:55:53;;;;;;;8.20;7.30;;;;;;;18.25;77.14;98591.58;233466;1201;24100;-72
2021/08/23 01:01:04;;;;;;;8.00;6.50;;;;;;;18.21;77.07;98593.17;233391;1202;24086;-73
2021/08/23 01:06:09;;;;;;;8.60;7.00;;;;;;;18.18;77.19;98608.95;233341;1201;24057;-72
2021/08/23 01:11:13;;;;;;;9.20;7.50;;;;;;;18.19;77.48;98612.31;233394;1201;22502;-71
2021/08/23 01:16:18;;;;;;;7.70;7.00;;;;;;;18.23;77.62;98608.05;233323;1201;25197;-71
2021/08/23 01:21:40;;;;;;;9.90;8.30;;;;;;;18.20;77.52;98604.20;233319;1201;22459;-71
2021/08/23 01:27:08;;;;;;;10.50;7.80;;;;;;;18.19;77.61;98602.16;233207;1194;24127;-71
2021/08/23 01:32:15;;;;;;;8.90;7.60;;;;;;;18.26;78.11;98589.05;233265;1205;25091;-72
2021/08/23 01:37:17;;;;;;;10.40;8.60;;;;;;;18.35;78.18;98573.88;233313;1195;22500;-71
2021/08/23 01:42:20;;;;;;;9.10;8.00;;;;;;;18.37;78.08;98581.45;233276;1201;24048;-71
2021/08/23 01:47:23;;;;;;;8.50;7.70;;;;;;;18.22;77.60;98577.17;233317;1202;24281;-72
2021/08/23 01:52:26;;;;;;;7.90;7.10;;;;;;;18.10;77.57;98570.41;233383;1194;24058;-72
2021/08/23 01:57:28;;;;;;;8.00;7.20;;;;;;;18.02;77.67;98572.40;233259;1195;22475;-70
2021/08/23 02:02:31;;;;;;;7.30;6.30;;;;;;;17.97;78.04;98570.79;233407;1202;24067;-71
2021/08/23 02:07:33;;;;;;;8.40;7.10;;;;;;;17.94;78.20;98564.58;233391;1192;24172;-70
2021/08/23 02:12:36;;;;;;;7.70;6.80;;;;;;;17.87;78.39;98562.87;233269;1201;24195;-72
2021/08/23 02:17:45;;;;;;;10.50;9.10;;;;;;;17.79;78.61;98556.39;233314;1201;24061;-71
2021/08/23 02:22:48;;;;;;;10.20;9.10;;;;;;;17.72;79.04;98554.16;233291;1201;24087;-72
2021/08/23 02:27:51;;;;;;;10.70;8.30;;;;;;;17.66;79.33;98544.38;233427;1201;25178;-72
2021/08/23 02:32:54;;;;;;;11.00;8.30;;;;;;;17.66;79.72;98548.33;233252;1195;22442;-72
2021/08/23 02:37:57;;;;;;;10.00;8.90;;;;;;;17.68;79.84;98545.75;233262;1201;22536;-70
2021/08/23 02:43:00;;;;;;;10.80;9.10;;;;;;;17.68;80.05;98554.96;233115;1201;22425;-72
2021/08/23 02:48:03;;;;;;;10.30;8.70;;;;;;;17.64;80.30;98561.20;233256;1201;22572;-72
2021/08/23 02:53:06;;;;;;;10.70;8.90;;;;;;;17.58;80.58;98556.00;233410;1201;25219;-72
2021/08/23 02:58:09;;;;;;;9.50;8.50;;;;;;;17.57;80.67;98539.95;233316;1201;22584;-70
2021/08/23 03:03:12;;;;;;;10.50;8.10;;;;;;;17.64;80.94;98538.89;233315;1202;24089;-70
2021/08/23 03:08:22;;;;;;;10.00;9.00;;;;;;;17.63;81.03;98541.82;233407;1201;24044;-71
2021/08/23 03:13:41;;;;;;;9.80;8.50;;;;;;;17.59;81.27;98552.40;233323;1195;22479;-72
2021/08/23 03:18:46;;;;;;;12.10;8.80;;;;;;;17.57;81.67;98553.09;233307;1201;22447;-72
2021/08/23 03:24:00;;;;;;;10.70;9.60;;;;;;;17.57;81.96;98555.72;233193;1201;25287;-72
2021/08/23 03:29:21;;;;;;;18.50;14.70;;;;;;;17.58;82.04;98551.11;233233;1195;22652;-71
2021/08/23 03:34:24;;;;;;;12.10;11.10;;;;;;;17.58;82.13;98554.98;233340;1193;24275;-70
2021/08/23 03:39:27;;;;;;;13.20;11.40;;;;;;;17.59;82.09;98556.25;233338;1201;25221;-72
2021/08/23 03:44:30;;;;;;;13.20;11.70;;;;;;;17.62;82.28;98561.77;233210;1201;22488;-73
2021/08/23 03:49:32;;;;;;;27.10;24.40;;;;;;;17.66;82.33;98562.50;233071;1195;24618;-71
2021/08/23 03:54:49;;;;;;;38.70;34.70;;;;;;;17.68;82.26;98562.09;233372;1193;24053;-72
2021/08/23 03:59:52;;;;;;;29.90;26.90;;;;;;;17.70;82.36;98562.14;233065;1201;24092;-69
2021/08/23 04:04:55;;;;;;;15.40;13.90;;;;;;;17.72;82.42;98566.23;233153;1201;22505;-71
2021/08/23 04:09:58;;;;;;;14.10;12.70;;;;;;;17.75;82.49;98566.61;233071;1201;22454;-72
2021/08/23 04:15:10;;;;;;;11.10;10.00;;;;;;;17.79;82.58;98572.80;233109;1201;24103;-72
2021/08/23 04:20:20;;;;;;;13.90;10.20;;;;;;;17.84;82.65;98579.14;233219;1201;24099;-72
2021/08/23 04:25:42;;;;;;;12.10;10.40;;;;;;;17.88;82.74;98591.55;233107;1196;24253;-72
2021/08/23 04:30:52;;;;;;;13.10;9.70;;;;;;;17.94;82.86;98602.78;233098;1201;24110;-71
2021/08/23 04:36:01;;;;;;;9.90;8.90;;;;;;;18.02;83.03;98602.62;233308;1200;25167;-72
2021/08/23 04:41:06;;;;;;;10.70;9.20;;;;;;;18.12;82.89;98605.70;233449;1193;24271;-72
2021/08/23 04:46:09;;;;;;;9.60;8.60;;;;;;;18.17;82.61;98606.53;233222;1202;22514;-71
2021/08/23 04:51:12;;;;;;;9.90;8.60;;;;;;;18.24;82.67;98604.95;233441;1200;26469;-72
2021/08/23 04:56:16;;;;;;;8.80;7.90;;;;;;;18.27;82.27;98600.98;233275;1202;24066;-71
2021/08/23 05:01:19;;;;;;;10.10;9.00;;;;;;;18.24;82.16;98592.23;233386;1202;22569;-70
2021/08/23 05:06:22;;;;;;;10.90;8.70;;;;;;;18.18;81.92;98595.24;233268;1193;24816;-69
2021/08/23 05:11:57;;;;;;;9.00;7.20;;;;;;;18.16;82.22;98608.36;233391;1201;24068;-72
2021/08/23 05:17:14;;;;;;;;;;;;;;;18.20;82.44;98619.41;233200;1201;24092;-71
2021/08/23 05:22:24;;;;;;;8.10;6.70;;;;;;;18.23;82.51;98633.11;233158;1193;22437;-72
2021/08/23 05:27:27;;;;;;;7.20;6.40;;;;;;;18.15;82.67;98642.24;233241;1201;24027;-69
2021/08/23 05:32:29;;;;;;;6.80;6.00;;;;;;;18.04;83.39;98645.41;233274;1194;24163;-71
2021/08/23 05:37:32;;;;;;;7.00;6.10;;;;;;;18.01;83.50;98655.08;233111;1201;24208;-69
2021/08/23 05:42:36;;;;;;;7.00;6.30;;;;;;;18.04;83.60;98654.77;233067;1201;22499;-71
2021/08/23 05:47:38;;;;;;;7.70;5.80;;;;;;;18.02;83.92;98649.21;233586;1208;26563;-72
2021/08/23 05:52:41;;;;;;;6.50;5.90;;;;;;;17.96;84.06;98651.90;233661;1201;22456;-71
2021/08/23 05:57:43;;;;;;;7.10;6.40;;;;;;;17.92;84.25;98647.52;233811;1201;22446;-70
2021/08/23 06:02:46;;;;;;;6.00;5.50;;;;;;;17.90;84.34;98650.52;233471;1201;22571;-72
2021/08/23 06:07:49;;;;;;;5.40;4.80;;;;;;;17.89;84.39;98657.46;233727;1201;22463;-72
2021/08/23 06:12:52;;;;;;;5.80;5.10;;;;;;;17.93;84.39;98658.00;233559;1201;22450;-72
2021/08/23 06:17:55;;;;;;;4.90;4.30;;;;;;;17.99;84.17;98661.98;233699;1201;25327;-71
2021/08/23 06:23:11;;;;;;;5.10;4.60;;;;;;;17.98;83.96;98665.84;233844;1193;22516;-72
2021/08/23 06:28:13;;;;;;;4.90;4.50;;;;;;;17.97;83.82;98670.83;233676;1202;25312;-72
2021/08/23 06:33:16;;;;;;;4.60;4.20;;;;;;;17.93;83.82;98669.92;233978;1201;24803;-69
2021/08/23 06:38:19;;;;;;;4.40;3.90;;;;;;;17.84;83.77;98679.37;234332;1201;25140;-72
2021/08/23 06:43:22;;;;;;;4.30;3.90;;;;;;;17.79;84.08;98680.01;234135;1201;23775;-73
2021/08/23 06:48:24;;;;;;;4.20;3.90;;;;;;;17.73;84.23;98678.64;234203;1194;24080;-75
2021/08/23 06:53:27;;;;;;;5.70;3.90;;;;;;;17.64;84.60;98682.83;234022;1201;24106;-73
2021/08/23 06:58:29;;;;;;;4.40;4.00;;;;;;;17.62;84.72;98687.05;233816;1201;22558;-70
2021/08/23 07:03:34;;;;;;;3.90;3.50;;;;;;;17.65;84.99;98693.23;233744;1201;24159;-73
2021/08/23 07:08:36;;;;;;;4.50;4.10;;;;;;;17.64;85.18;98693.75;233684;1198;22479;-72
2021/08/23 07:13:40;;;;;;;5.30;3.90;;;;;;;17.61;85.40;98696.14;233882;1202;25688;-74
2021/08/23 07:18:44;;;;;;;5.00;4.10;;;;;;;17.61;85.77;98694.52;233613;1202;22536;-73
2021/08/23 07:23:47;;;;;;;4.80;4.30;;;;;;;17.62;85.98;98696.65;233649;1202;22534;-71
2021/08/23 07:28:50;;;;;;;4.90;4.20;;;;;;;17.62;86.14;98694.56;233650;1202;22458;-72
2021/08/23 07:33:53;;;;;;;4.50;4.10;;;;;;;17.69;86.17;98693.30;233865;1196;25264;-73
2021/08/23 07:38:56;;;;;;;5.20;4.00;;;;;;;17.72;85.94;98693.86;234282;1202;25229;-72
2021/08/23 07:44:00;;;;;;;4.10;3.70;;;;;;;17.77;86.01;98692.70;233760;1202;24688;-72
2021/08/23 07:49:06;;;;;;;5.10;4.60;;;;;;;17.80;85.89;98690.09;233738;1202;24173;-73
2021/08/23 07:54:08;;;;;;;4.30;3.80;;;;;;;17.85;86.02;98690.31;233851;1203;25215;-73
2021/08/23 07:59:11;;;;;;;4.40;4.00;;;;;;;17.87;86.24;98694.04;233658;1201;25267;-73
2021/08/23 08:04:13;;;;;;;4.60;4.10;;;;;;;17.90;86.19;98694.14;233668;1196;24065;-73
2021/08/23 08:09:16;;;;;;;3.50;3.20;;;;;;;17.98;86.23;98694.10;233464;1201;24090;-73
2021/08/23 08:14:19;;;;;;;5.20;4.50;;;;;;;18.11;86.09;98698.41;233706;1202;23105;-73
2021/08/23 08:19:21;;;;;;;4.30;3.90;;;;;;;18.23;85.97;98694.98;233671;1202;24034;-72
2021/08/23 08:24:25;;;;;;;4.60;4.00;;;;;;;18.32;85.78;98696.26;233795;1201;24069;-73
2021/08/23 08:29:28;;;;;;;4.80;4.10;;;;;;;18.45;85.63;98683.80;233864;1201;24252;-75
2021/08/23 08:34:30;;;;;;;5.00;4.30;;;;;;;18.54;85.45;98686.45;233569;1201;24067;-71
2021/08/23 08:39:41;;;;;;;6.50;4.00;;;;;;;18.62;85.16;98685.05;233628;1202;22445;-72
2021/08/23 08:44:51;;;;;;;5.00;4.00;;;;;;;18.76;85.19;98675.70;233746;1202;24078;-72
2021/08/23 08:49:54;;;;;;;3.90;3.50;;;;;;;18.91;84.77;98671.30;233696;1195;22465;-72
2021/08/23 08:54:57;;;;;;;4.90;3.90;;;;;;;19.25;85.14;98667.70;233621;1203;24114;-72
2021/08/23 09:00:00;;;;;;;4.70;3.40;;;;;;;19.62;84.13;98678.02;233729;1201;24113;-73
2021/08/23 09:05:14;;;;;;;4.30;3.80;;;;;;;19.96;82.94;98677.06;233709;1202;24186;-73
2021/08/23 09:10:22;;;;;;;4.00;3.50;;;;;;;20.21;82.07;98683.42;233756;1203;24128;-71
2021/08/23 09:15:25;;;;;;;4.60;4.00;;;;;;;20.49;81.26;98679.83;233711;1204;22561;-72
2021/08/23 09:20:29;;;;;;;4.00;3.60;;;;;;;20.55;79.65;98674.45;233722;1202;23845;-73
2021/08/23 09:25:33;;;;;;;5.10;4.00;;;;;;;20.45;79.37;98675.41;233771;1202;24067;-72
2021/08/23 09:30:56;;;;;;;4.70;3.90;;;;;;;20.44;79.31;98674.83;233648;1205;24184;-73
2021/08/23 09:35:59;;;;;;;3.70;3.40;;;;;;;20.30;78.27;98675.55;233749;1200;24568;-72
2021/08/23 09:41:04;;;;;;;4.00;3.50;;;;;;;20.27;78.78;98678.59;233673;1202;24019;-72
2021/08/23 09:46:11;;;;;;;4.60;3.80;;;;;;;20.42;78.83;98681.71;233720;1208;25317;-72
2021/08/23 09:51:23;;;;;;;4.00;3.40;;;;;;;20.66;78.98;98679.95;233785;1202;24113;-72
2021/08/23 09:56:26;;;;;;;5.60;3.70;;;;;;;20.88;77.90;98685.30;234061;1202;22440;-71
2021/08/23 10:01:31;;;;;;;3.80;3.50;;;;;;;20.86;77.20;98687.53;233964;1195;22466;-72
2021/08/23 10:06:37;;;;;;;3.90;3.40;;;;;;;20.82;76.73;98693.29;234368;1201;22462;-72
2021/08/23 10:11:40;;;;;;;4.90;3.80;;;;;;;20.77;76.45;98690.69;234455;1201;22619;-71
2021/08/23 10:16:45;;;;;;;4.20;3.30;;;;;;;20.59;76.17;98696.44;234116;1205;24071;-70
2021/08/23 10:21:50;;;;;;;3.40;3.10;;;;;;;20.50;76.28;98694.39;233618;1205;22871;-72
2021/08/23 10:26:53;;;;;;;3.90;3.50;;;;;;;20.42;76.28;98688.08;234353;1196;24195;-71
2021/08/23 10:32:06;;;;;;;3.60;3.30;;;;;;;20.49;76.76;98686.67;235298;1201;25147;-72
2021/08/23 10:37:21;;;;;;;5.00;3.80;;;;;;;20.71;76.46;98684.95;235114;1202;22462;-70
2021/08/23 10:42:35;;;;;;;3.70;2.90;;;;;;;21.03;75.91;98689.25;233980;1206;24210;-73
2021/08/23 10:47:38;;;;;;;4.90;3.70;;;;;;;21.42;75.51;98684.25;235007;1201;23520;-74
2021/08/23 10:52:43;;;;;;;3.80;3.40;;;;;;;21.70;74.83;98681.56;234961;1202;24061;-72
2021/08/23 10:57:46;;;;;;;5.30;3.60;;;;;;;21.95;74.23;98675.70;234437;1201;22439;-73
2021/08/23 11:02:58;;;;;;;5.50;5.00;;;;;;;22.08;72.96;98674.89;234603;1198;22518;-73
2021/08/23 11:08:18;;;;;;;4.80;4.40;;;;;;;22.35;72.55;98672.78;235039;1206;23083;-73
2021/08/23 11:13:20;;;;;;;;;;;;;;;22.82;72.08;98673.20;234072;1202;24108;-73
2021/08/23 11:18:24;;;;;;;5.10;4.70;;;;;;;23.16;70.56;98669.99;234415;1201;24089;-74
2021/08/23 11:23:28;;;;;;;4.70;4.30;;;;;;;23.48;69.81;98657.70;234268;1202;22598;-75
2021/08/23 11:28:31;;;;;;;5.20;4.70;;;;;;;23.96;69.74;98650.73;234087;1205;22575;-75
2021/08/23 11:33:37;;;;;;;7.10;6.50;;;;;;;24.56;68.96;98645.73;235135;1204;24090;-72
2021/08/23 11:38:40;;;;;;;6.80;6.10;;;;;;;24.69;67.17;98648.77;234082;1209;22468;-73
2021/08/23 11:43:44;;;;;;;6.70;6.10;;;;;;;24.67;65.75;98647.11;233763;1201;22440;-69
2021/08/23 11:48:55;;;;;;;5.30;4.80;;;;;;;24.77;66.01;98642.77;233530;1202;22455;-72
2021/08/23 11:54:09;;;;;;;4.20;3.90;;;;;;;25.16;65.43;98637.52;233608;1201;24064;-73
2021/08/23 11:59:12;;;;;;;5.20;4.70;;;;;;;24.97;63.07;98636.70;233710;1201;22466;-73
2021/08/23 12:04:22;;;;;;;5.30;4.80;;;;;;;24.87;64.07;98627.52;234022;1195;22445;-72
2021/08/23 12:09:24;;;;;;;5.20;4.70;;;;;;;25.38;61.86;98630.11;233825;1200;24195;-72
2021/08/23 12:14:34;;;;;;;6.80;6.20;;;;;;;25.05;60.01;98627.56;233907;1201;24098;-72
2021/08/23 12:19:36;;;;;;;;;;;;;;;24.84;61.36;98622.27;233991;1200;24117;-71
2021/08/23 12:24:39;;;;;;;5.50;5.00;;;;;;;24.66;61.24;98629.98;234045;1202;22467;-73
2021/08/23 12:29:41;;;;;;;4.90;4.50;;;;;;;24.29;61.60;98631.38;234183;1208;24079;-71
2021/08/23 12:34:47;;;;;;;5.60;5.10;;;;;;;23.62;61.71;98632.98;234191;1202;24023;-73
2021/08/23 12:40:02;;;;;;;5.80;4.70;;;;;;;22.91;62.68;98637.02;234055;1202;22478;-73
2021/08/23 12:45:25;;;;;;;7.20;5.40;;;;;;;22.28;64.97;98638.46;233745;1206;24210;-72
2021/08/23 12:50:28;;;;;;;6.20;5.60;;;;;;;21.63;66.91;98640.70;233902;1199;22488;-70
2021/08/23 12:55:31;;;;;;;6.20;5.50;;;;;;;21.02;68.82;98634.30;233667;1206;22440;-72
2021/08/23 13:00:33;;;;;;;7.40;6.20;;;;;;;20.77;70.78;98624.90;233572;1202;22576;-72
2021/08/23 13:05:36;;;;;;;5.80;5.30;;;;;;;20.87;71.66;98622.36;233762;1202;24176;-71
2021/08/23 13:10:42;;;;;;;7.00;5.60;;;;;;;21.00;72.20;98624.23;233867;1201;24057;-72
2021/08/23 13:15:46;;;;;;;7.30;6.40;;;;;;;21.08;72.13;98622.52;233627;1202;26221;-72
2021/08/23 13:20:48;;;;;;;7.20;6.00;;;;;;;21.07;72.27;98622.73;233669;1203;25205;-72
2021/08/23 13:25:51;;;;;;;7.40;6.50;;;;;;;21.10;72.47;98617.77;233764;1202;27339;-70
2021/08/23 13:31:02;;;;;;;6.20;5.60;;;;;;;21.18;72.59;98615.52;233636;1205;22471;-72
2021/08/23 13:36:05;;;;;;;8.10;7.00;;;;;;;21.29;72.53;98611.89;233539;1202;24042;-72
2021/08/23 13:41:20;;;;;;;8.10;7.30;;;;;;;21.61;72.91;98609.77;233664;1195;22450;-69
2021/08/23 13:46:30;;;;;;;7.20;6.40;;;;;;;21.95;72.03;98612.05;233657;1195;22464;-72
2021/08/23 13:51:32;;;;;;;8.60;6.60;;;;;;;22.12;71.47;98615.70;233735;1202;25218;-72
2021/08/23 13:56:35;;;;;;;7.80;7.10;;;;;;;22.19;70.89;98619.70;233633;1206;22445;-72
2021/08/23 14:01:42;;;;;;;11.60;7.10;;;;;;;22.37;70.69;98614.47;233828;1203;25074;-73
2021/08/23 14:07:04;;;;;;;7.40;6.50;;;;;;;22.68;69.95;98615.63;234811;1203;25056;-73
2021/08/23 14:12:07;;;;;;;6.90;6.30;;;;;;;22.91;69.02;98615.80;233616;1201;24178;-73
2021/08/23 14:17:10;;;;;;;6.70;6.10;;;;;;;23.13;68.31;98617.43;233681;1201;24055;-74
2021/08/23 14:22:13;;;;;;;7.90;6.90;;;;;;;23.21;68.05;98614.85;233601;1206;22506;-74
2021/08/23 14:27:15;;;;;;;8.70;7.40;;;;;;;23.18;67.83;98613.80;233450;1201;22661;-72
2021/08/23 14:32:18;;;;;;;8.30;7.60;;;;;;;22.93;67.20;98611.98;233620;1203;24066;-74
2021/08/23 14:37:21;;;;;;;8.30;6.40;;;;;;;22.73;67.66;98615.61;233495;1202;24137;-72
2021/08/23 14:42:24;;;;;;;8.10;7.30;;;;;;;22.63;68.04;98609.95;233318;1201;24102;-73
2021/08/23 14:47:27;;;;;;;12.40;11.10;;;;;;;22.65;68.27;98609.52;233459;1203;24089;-73
2021/08/23 14:52:46;;;;;;;;;;;;;;;22.69;68.24;98604.02;233089;1202;25218;-72
2021/08/23 14:57:49;;;;;;;9.10;7.90;;;;;;;22.64;67.66;98614.27;233512;1202;25947;-71
2021/08/23 15:02:51;;;;;;;9.20;8.30;;;;;;;22.61;67.58;98615.63;233188;1206;24102;-71
2021/08/23 15:07:54;;;;;;;7.70;6.90;;;;;;;22.62;67.88;98614.77;233632;1202;22447;-72
2021/08/23 15:13:13;;;;;;;5.70;5.20;;;;;;;22.55;67.58;98605.03;233316;1201;24080;-72
2021/08/23 15:18:30;;;;;;;5.80;5.30;;;;;;;22.43;67.68;98598.65;233427;1201;24050;-74
2021/08/23 15:23:33;;;;;;;6.90;6.10;;;;;;;22.49;68.43;98599.74;233992;1200;24941;-72
2021/08/23 15:28:43;;;;;;;7.10;6.40;;;;;;;22.61;68.02;98595.97;233506;1202;22463;-74
2021/08/23 15:33:46;;;;;;;6.90;6.20;;;;;;;22.72;67.66;98594.30;233509;1195;24055;-72
2021/08/23 15:38:50;;;;;;;6.50;5.90;;;;;;;22.80;67.65;98598.83;233405;1207;22932;-74
2021/08/23 15:43:54;;;;;;;6.70;6.10;;;;;;;22.85;66.90;98593.56;233460;1202;22466;-73
2021/08/23 15:49:09;;;;;;;7.30;6.60;;;;;;;22.84;66.82;98600.03;233857;1201;22460;-74
2021/08/23 15:54:32;;;;;;;3.60;3.30;;;;;;;22.90;66.12;98593.92;233300;1200;24046;-73
2021/08/23 15:59:35;;;;;;;3.20;2.90;;;;;;;22.92;65.24;98593.64;233513;1202;24101;-73
2021/08/23 16:04:38;;;;;;;3.80;3.50;;;;;;;22.90;64.96;98589.64;233215;1201;24186;-74
2021/08/23 16:09:41;;;;;;;4.30;3.90;;;;;;;22.92;65.11;98590.28;233393;1195;25068;-74
2021/08/23 16:14:43;;;;;;;4.70;4.30;;;;;;;22.96;65.05;98585.80;233475;1201;24198;-73
2021/08/23 16:19:46;;;;;;;3.90;3.60;;;;;;;22.99;64.26;98582.31;233443;1201;25204;-74
2021/08/23 16:24:48;;;;;;;4.20;3.70;;;;;;;23.01;64.17;98588.64;233579;1201;24099;-75
2021/08/23 16:29:53;;;;;;;4.30;3.90;;;;;;;23.04;63.76;98590.71;233608;1201;24102;-72
2021/08/23 16:35:08;;;;;;;5.90;3.90;;;;;;;23.04;63.63;98591.25;233695;1200;22484;-74
2021/08/23 16:40:31;;;;;;;5.00;4.10;;;;;;;22.96;63.35;98587.73;233304;1200;24106;-74
2021/08/23 16:45:37;;;;;;;5.20;4.60;;;;;;;22.78;63.25;98588.97;233734;1202;24085;-72
2021/08/23 16:50:41;;;;;;;5.40;3.90;;;;;;;22.60;64.07;98592.92;233621;1201;23505;-76
2021/08/23 16:55:44;;;;;;;4.60;3.40;;;;;;;22.44;64.71;98593.84;233546;1201;24083;-74
2021/08/23 17:00:47;;;;;;;4.90;4.20;;;;;;;22.20;64.91;98593.75;233371;1204;22568;-74
2021/08/23 17:06:10;;;;;;;3.90;3.50;;;;;;;21.94;65.58;98592.34;233371;1201;24217;-74
2021/08/23 17:11:13;;;;;;;4.10;3.50;;;;;;;21.71;66.06;98595.20;233463;1193;25257;-74
2021/08/23 17:16:15;;;;;;;4.60;3.70;;;;;;;21.44;66.14;98597.58;233388;1201;24144;-73
2021/08/23 17:21:18;;;;;;;4.90;3.70;;;;;;;21.19;66.42;98603.15;233275;1201;24180;-75
2021/08/23 17:26:21;;;;;;;5.00;4.50;;;;;;;20.93;67.08;98609.65;233330;1202;24089;-74
2021/08/23 17:31:23;;;;;;;4.00;3.60;;;;;;;20.70;67.76;98611.15;233479;1197;24128;-75
2021/08/23 17:36:27;;;;;;;5.20;4.00;;;;;;;20.48;68.15;98615.21;233484;1201;24050;-73
2021/08/23 17:41:43;;;;;;;4.20;3.80;;;;;;;20.25;68.65;98615.08;233594;1201;22473;-73
2021/08/23 17:47:08;;;;;;;4.90;3.50;;;;;;;19.96;69.08;98606.76;233497;1201;24085;-75
2021/08/23 17:52:11;;;;;;;3.10;2.80;;;;;;;19.66;69.68;98610.25;233711;1201;25289;-72
2021/08/23 17:57:13;;;;;;;3.00;2.70;;;;;;;19.44;70.12;98607.63;233646;1201;22818;-74
2021/08/23 18:02:16;;;;;;;4.50;3.10;;;;;;;19.26;70.76;98609.39;233311;1201;22538;-74
2021/08/23 18:07:19;;;;;;;4.10;3.70;;;;;;;19.13;71.27;98611.39;233385;1195;24016;-73
2021/08/23 18:12:21;;;;;;;5.00;3.10;;;;;;;18.98;71.64;98613.35;233455;1201;24031;-73
2021/08/23 18:17:24;;;;;;;3.70;3.00;;;;;;;18.83;71.86;98617.12;233550;1208;24047;-72
2021/08/23 18:22:26;;;;;;;3.90;3.40;;;;;;;18.71;72.65;98622.52;233486;1202;24115;-73
2021/08/23 18:27:29;;;;;;;4.10;3.70;;;;;;;18.65;73.34;98631.89;233301;1201;23990;-72
2021/08/23 18:32:47;;;;;;;4.70;3.90;;;;;;;18.59;73.70;98635.37;233063;1201;24043;-73
2021/08/23 18:38:10;;;;;;;5.00;3.50;;;;;;;18.55;73.86;98639.67;233459;1194;24069;-74
2021/08/23 18:43:12;;;;;;;4.50;4.10;;;;;;;18.53;74.28;98643.04;233545;1202;24018;-74
2021/08/23 18:48:15;;;;;;;4.70;4.30;;;;;;;18.52;74.43;98639.96;233209;1201;22588;-75
2021/08/23 18:53:19;;;;;;;5.10;4.20;;;;;;;18.43;74.48;98644.38;233091;1201;24176;-74
2021/08/23 18:58:22;;;;;;;5.70;4.40;;;;;;;18.39;74.76;98649.14;233521;1201;22451;-74
2021/08/23 19:03:25;;;;;;;5.80;5.20;;;;;;;18.37;74.92;98649.16;233299;1201;24044;-74
2021/08/23 19:08:31;;;;;;;9.90;5.00;;;;;;;18.37;75.12;98651.02;233384;1202;24067;-72
2021/08/23 19:13:34;;;;;;;6.90;4.50;;;;;;;18.33;75.11;98652.23;233649;1201;24140;-74
2021/08/23 19:18:38;;;;;;;6.40;4.70;;;;;;;18.32;75.61;98656.30;233698;1201;25172;-72
2021/08/23 19:23:41;;;;;;;7.00;5.90;;;;;;;18.34;75.92;98655.37;233829;1201;24050;-74
2021/08/23 19:28:44;;;;;;;6.90;5.60;;;;;;;18.37;76.12;98657.75;234061;1201;25169;-73
2021/08/23 19:33:47;;;;;;;8.90;5.10;;;;;;;18.36;75.94;98660.20;233562;1201;22460;-73
2021/08/23 19:38:50;;;;;;;7.10;5.20;;;;;;;18.33;76.16;98653.47;233684;1201;24065;-71
2021/08/23 19:43:52;;;;;;;7.20;6.10;;;;;;;18.33;76.43;98653.38;233707;1201;24065;-74
2021/08/23 19:48:56;;;;;;;7.30;5.70;;;;;;;18.30;76.53;98647.66;233322;1201;24213;-74
2021/08/23 19:53:59;;;;;;;8.80;5.50;;;;;;;18.20;76.17;98648.67;233367;1201;22516;-73
2021/08/23 19:59:05;;;;;;;9.70;5.60;;;;;;;17.98;75.77;98663.51;233552;1201;24135;-74
2021/08/23 20:04:08;;;;;;;8.60;5.50;;;;;;;17.76;75.89;98663.56;233542;1202;24032;-74
2021/08/23 20:09:12;;;;;;;7.00;5.60;;;;;;;17.64;76.56;98662.19;233358;1201;22447;-74
2021/08/23 20:14:17;;;;;;;8.70;5.70;;;;;;;17.56;76.91;98665.40;233323;1201;24065;-73
2021/08/23 20:19:19;;;;;;;9.70;6.30;;;;;;;17.49;77.17;98670.77;233231;1201;24068;-74
2021/08/23 20:24:22;;;;;;;9.30;6.80;;;;;;;17.46;77.47;98668.13;233285;1201;22588;-74
2021/08/23 20:29:25;;;;;;;6.70;6.00;;;;;;;17.52;78.08;98668.98;233559;1201;25146;-73
2021/08/23 20:34:35;;;;;;;9.40;6.80;;;;;;;17.50;78.02;98665.98;233120;1201;24045;-74
2021/08/23 20:39:39;;;;;;;7.60;6.70;;;;;;;17.50;78.50;98663.28;233239;1195;24057;-74
2021/08/23 20:44:45;;;;;;;8.50;6.30;;;;;;;17.52;78.72;98662.81;233348;1201;22456;-74
2021/08/23 20:49:48;;;;;;;7.40;6.00;;;;;;;17.53;78.79;98661.52;233374;1201;25056;-74
2021/08/23 20:54:51;;;;;;;7.70;6.70;;;;;;;17.52;78.98;98655.16;233570;1202;22457;-74
2021/08/23 20:59:54;;;;;;;6.80;5.80;;;;;;;17.49;79.07;98651.11;233407;1201;24166;-74
2021/08/23 21:05:06;;;;;;;6.80;6.10;;;;;;;17.50;79.16;98647.63;233288;1201;24090;-74
2021/08/23 21:10:10;;;;;;;8.20;6.40;;;;;;;17.47;79.30;98651.89;233241;1203;25070;-74
2021/08/23 21:15:15;;;;;;;8.30;6.80;;;;;;;17.46;79.26;98661.23;233431;1202;24063;-73
2021/08/23 21:20:18;;;;;;;6.80;6.00;;;;;;;17.43;79.44;98659.97;233390;1201;24192;-75
2021/08/23 21:25:35;;;;;;;6.20;5.60;;;;;;;17.40;79.61;98646.80;233362;1202;24144;-74
2021/08/23 21:31:06;;;;;;;7.00;5.80;;;;;;;17.45;80.05;98644.69;233334;1202;24098;-74
2021/08/23 21:36:33;;;;;;;8.30;7.20;;;;;;;17.48;80.10;98648.42;233270;1202;22464;-72
2021/08/23 21:41:37;;;;;;;8.40;7.30;;;;;;;17.44;80.15;98647.54;233346;1202;24199;-74
2021/08/23 21:46:39;;;;;;;7.60;6.80;;;;;;;17.40;80.03;98649.49;233407;1201;22614;-72
2021/08/23 21:51:42;;;;;;;8.10;6.60;;;;;;;17.36;80.20;98647.90;233311;1201;24089;-74
2021/08/23 21:56:45;;;;;;;8.00;6.60;;;;;;;17.33;80.47;98645.48;233512;1195;24204;-73
2021/08/23 22:01:49;;;;;;;7.70;5.80;;;;;;;17.33;80.70;98647.71;233382;1200;24103;-74
2021/08/23 22:06:58;;;;;;;5.40;4.90;;;;;;;17.33;80.70;98656.08;233273;1201;22844;-74
2021/08/23 22:12:21;;;;;;;7.40;5.40;;;;;;;17.30;80.51;98652.58;233450;1201;22517;-72
2021/08/23 22:17:46;;;;;;;7.50;5.20;;;;;;;17.23;80.46;98657.22;233440;1201;24060;-75
2021/08/23 22:22:50;;;;;;;5.60;5.00;;;;;;;17.19;80.44;98655.40;233502;1200;25200;-72
2021/08/23 22:27:53;;;;;;;5.20;4.70;;;;;;;17.17;80.53;98651.92;233529;1202;24124;-73
2021/08/23 22:32:56;;;;;;;5.70;5.00;;;;;;;17.16;80.72;98653.55;233445;1201;22541;-74
2021/08/23 22:37:59;;;;;;;6.80;6.10;;;;;;;17.16;80.83;98658.52;233350;1201;24068;-74
2021/08/23 22:43:02;;;;;;;6.50;5.80;;;;;;;17.12;80.84;98649.18;233294;1201;25437;-72
2021/08/23 22:48:09;;;;;;;6.90;6.20;;;;;;;17.09;80.90;98648.63;233398;1203;24077;-73
2021/08/23 22:53:17;;;;;;;7.60;6.80;;;;;;;17.06;80.93;98643.27;233293;1201;25081;-74
2021/08/23 22:58:20;;;;;;;7.40;6.50;;;;;;;17.06;81.00;98646.05;233435;1195;22451;-74
2021/08/23 23:03:23;;;;;;;8.40;6.70;;;;;;;17.08;81.21;98644.50;233221;1201;22440;-74
2021/08/23 23:08:26;;;;;;;8.30;7.50;;;;;;;17.08;81.15;98640.64;233343;1201;25163;-73
2021/08/23 23:13:30;;;;;;;9.20;8.10;;;;;;;17.04;81.11;98643.14;233401;1208;24184;-74
2021/08/23 23:18:34;;;;;;;9.30;8.30;;;;;;;16.97;81.12;98636.75;233436;1202;22461;-74
2021/08/23 23:23:37;;;;;;;13.40;10.20;;;;;;;16.91;81.17;98637.11;233288;1201;24084;-72
2021/08/23 23:28:39;;;;;;;11.80;9.80;;;;;;;16.88;81.31;98632.75;233306;1201;24044;-73
2021/08/23 23:33:41;;;;;;;12.70;10.30;;;;;;;16.85;81.19;98634.17;233375;1201;24074;-73
2021/08/23 23:38:44;;;;;;;13.60;10.60;;;;;;;16.80;81.14;98631.29;233368;1202;23483;-74
2021/08/23 23:43:47;;;;;;;13.30;10.90;;;;;;;16.72;81.18;98625.60;233422;1194;24142;-74